Hlavní strana
METAR-TAF:

METAR-TAF

Letiště :

Vardø, Norsko

zeměpisná šířka: 70-21N, zeměpisná délka: 031-03E, výška: 12 m

Aktuální stav počasí

Zpráva byla vytvořena před 21 minutami, v 13:50 UTC
Západojihozápadní vítr 23 kt
Teplota -3°C
Vlhkost vzduchu 80%
Tlak 1004 hPa
Viditelnost 10 km a více
Polojasno ve výšce 1300 ft
Oblačno až skoro zataženo ve výšce 6500 ft

METAR: ENSS 251350Z 25023KT 9999 SCT013 BKN065 M03/M06 Q1004 RMK WIND 500FT 24035KT

Čas: 15:11 (14:11 UTC)


TAF: chybějící

Stav a předpovědi počasí z více než 4 000 letišť (zprávy METAR a TAF).

Červené a žluté tečky na mapě představují dostupné meteorologické stanice.

Když kurzor umístíte na tečku, zobrazí se název stanice.

Pak kliknutím zobrazíte stav a předpověď počasí.

Chcete-li změnit mapu, kliknutím na zelené tlačítko se znaménkem +mapu přiblížíte, kliknutím na zelené tlačítko se znaménkem – mapu oddálíte a kliknutím na zelené šipky přejdete na sousední mapy.


METAR-TAF: